Latest Weather Observations for Giles*

IDD60801

Issued at 9:01 pm CST Tuesday 21 April 2015 (issued every 30 minutes, with the page automatically refreshed every 10 minutes)

About weather observations | Map of weather stations | Latest weather observations for NT | Other Formats
Station Details ID: 013017 Name: GILES METEOROLOGICAL OFFICE Lat: -25.03 Lon: 128.30 Height: 598.0 m
Data from the previous 72 hours. | See also: Recent months at Giles*

* Giles observations are collected in the South Australia time zone, which includes daylight saving in the summer period. Therefore, Rain since 9am value is with respect to South Australia local time.

Date/Time
CST
Temp
°C
App
Temp
°C
Dew
Point
Rel
Hum
%
Delta-T
°C
Wind Press
QNH
hPa
Press
MSL
hPa
Rain
since 9 am
mm
Dir
 
Spd
km/h
Gust
km/h
Spd
kts
Gust
kts
21/08:30pm 19.3 14.4 -12.7 10 11.2 E 9 13 5 7 1023.2 1020.1 0.0
21/08:00pm 19.6 14.7 -12.3 10 11.3 E 9 11 5 6 1022.7 1019.6 0.0
21/07:30pm 20.0 15.2 -10.9 11 11.3 NE 9 11 5 6 1022.3 1019.3 0.0
21/07:00pm 20.5 15.2 -12.7 9 11.8 NE 11 15 6 8 1021.8 1018.7 0.0
21/06:30pm 20.8 15.0 -14.9 8 12.2 ENE 13 20 7 11 1021.6 1018.5 0.0
21/05:30pm 21.5 14.8 -17.5 6 12.8 E 17 20 9 11 1021.2 1018.1 0.0
21/05:00pm 21.7 14.5 -20.1 5 13.1 ENE 19 26 10 14 1021.2 1018.1 0.0
21/04:30pm 22.1 14.9 -20.1 5 13.3 E 19 28 10 15 1021.0 1017.9 0.0
21/04:00pm 21.8 14.4 -19.4 5 13.1 E 20 28 11 15 1021.0 1017.9 0.0
21/03:30pm 21.7 13.9 -21.5 4 13.2 E 22 33 12 18 1021.1 1018.0 0.0
21/03:00pm 21.8 14.1 -18.1 6 13.0 E 22 35 12 19 1021.2 1018.1 0.0
21/02:30pm 21.4 13.3 -18.1 6 12.8 ENE 24 32 13 17 1021.6 1018.5 0.0
21/02:00pm 21.2 13.1 -18.2 6 12.7 E 24 32 13 17 1022.0 1018.9 0.0
21/01:30pm 20.4 11.9 -18.1 6 12.3 E 26 33 14 18 1022.7 1019.6 0.0
21/01:00pm 20.1 12.1 -16.4 7 12.0 E 24 37 13 20 1023.3 1020.2 0.0
21/12:30pm 18.6 9.9 -15.7 8 11.2 E 28 43 15 23 1024.1 1021.1 0.0
21/12:00pm 18.5 9.4 -16.2 8 11.2 E 30 43 16 23 1024.7 1021.6 0.0
21/11:30am 17.9 8.4 -15.1 9 10.8 E 32 43 17 23 1025.0 1021.9 0.0
21/11:00am 16.9 7.2 -15.8 9 10.5 E 33 46 18 25 1025.5 1022.5 0.0
21/10:42am 16.2 7.2 -14.2 11 9.9 E 30 48 16 26 1025.6 1022.6 0.0
21/10:30am 16.2 7.2 -14.2 11 9.9 E 30 43 16 23 1025.8 1022.8 0.0
21/10:28am 15.8 6.8 -13.3 12 9.7 E 30 48 16 26 1025.8 1022.8 0.0
21/10:00am 15.7 7.6 -11.4 14 9.3 E 26 39 14 21 1025.9 1022.9 0.0
21/09:34am 14.7 6.3 -10.5 16 8.7 E 28 46 15 25 1026.2 1023.1 0.0
21/09:29am 14.5 5.8 -9.8 17 8.5 E 30 48 16 26 1026.2 1023.1 0.0
21/09:00am 14.3 4.9 -10.4 17 8.5 E 33 48 18 26 1026.2 1023.1 0.0
21/08:30am 13.4 6.6 -9.2 20 7.9 E 20 33 11 18 1026.0 1023.0 0.0
21/08:00am 13.1 6.6 -8.3 22 7.6 E 19 30 10 16 1025.9 1022.9 0.0
21/07:30am 13.0 6.5 -8.5 21 7.6 ENE 19 26 10 14 1025.7 1022.7 0.0
21/07:00am 13.3 6.2 -8.3 21 7.7 E 22 35 12 19 1025.3 1022.3 0.0
21/06:30am 13.6 5.7 -8.7 20 7.9 E 26 39 14 21 1025.3 1022.3 0.0
21/06:00am 13.8 5.9 -8.7 20 8.0 E 26 39 14 21 1024.9 1021.8 0.0
21/05:30am 13.9 7.3 -7.4 22 7.8 E 20 28 11 15 1025.1 1022.0 0.0
21/05:00am 14.3 6.5 -7.5 21 8.0 E 26 35 14 19 1025.0 1021.9 0.0
21/04:30am 14.5 7.8 -7.5 21 8.1 E 20 32 11 17 1024.9 1021.8 0.0
21/04:00am 14.7 7.2 -8.1 20 8.3 E 24 35 13 19 1024.1 1021.1 0.0
21/03:30am 14.9 7.4 -8.1 19 8.4 E 24 37 13 20 1024.2 1021.2 0.0
21/03:00am 15.2 7.3 -8.5 18 8.6 E 26 41 14 22 1024.3 1021.3 0.0
21/02:30am 15.5 8.0 -8.8 18 8.8 E 24 37 13 20 1025.1 1022.0 0.0
21/02:00am 15.8 7.9 -9.2 17 9.0 E 26 37 14 20 1025.1 1022.0 0.0
21/01:30am 16.1 9.5 -9.5 16 9.2 E 19 28 10 15 1025.4 1022.4 0.0
21/01:00am 16.3 9.7 -9.6 16 9.3 E 19 30 10 16 1025.6 1022.6 0.0
21/12:30am 16.5 10.4 -7.9 18 9.1 ENE 17 24 9 13 1025.5 1022.5 0.0
21/12:00am 16.8 10.0 -8.8 16 9.4 E 20 28 11 15 1025.9 1022.9 0.0
 
Date/Time
CST
Temp
°C
App
Temp
°C
Dew
Point
Rel
Hum
%
Delta-T
°C
Wind Press
QNH
hPa
Press
MSL
hPa
Rain
since 9 am
mm
Dir
 
Spd
km/h
Gust
km/h
Spd
kts
Gust
kts
20/11:30pm 17.0 10.5 -8.2 17 9.4 E 19 28 10 15 1026.5 1023.4 0.0
20/11:00pm 16.9 11.2 -7.9 17 9.3 ESE 15 19 8 10 1026.8 1023.8 0.0
20/10:30pm 17.2 11.1 -8.3 17 9.5 E 17 26 9 14 1026.5 1023.4 0.0
20/10:00pm 17.4 11.7 -7.7 17 9.5 ESE 15 20 8 11 1026.3 1023.2 0.0
20/09:30pm 17.7 11.6 -8.0 16 9.7 E 17 24 9 13 1026.0 1023.0 0.0
20/09:00pm 18.0 10.9 -8.3 16 9.9 ESE 22 32 12 17 1025.6 1022.6 0.0
20/08:30pm 18.1 11.5 -8.6 15 10.0 ESE 19 26 10 14 1025.5 1022.5 0.0
20/08:00pm 18.7 11.9 -9.9 13 10.6 ESE 20 28 11 15 1025.4 1022.4 0.0
20/07:30pm 19.0 11.8 -9.0 14 10.5 ESE 22 32 12 17 1025.2 1022.2 0.0
20/07:00pm 19.5 11.6 -9.3 13 10.9 ESE 26 37 14 20 1024.8 1021.7 0.0
20/06:30pm 19.8 12.3 -8.9 13 10.9 ESE 24 35 13 19 1024.2 1021.2 0.0
20/06:00pm 20.1 11.4 -9.2 13 11.1 ESE 30 37 16 20 1024.0 1021.0 0.0
20/05:30pm 20.6 10.9 -10.2 11 11.5 ESE 35 50 19 27 1023.6 1020.6 0.0
20/05:00pm 20.8 12.2 -7.7 14 11.2 ESE 30 39 16 21 1023.3 1020.2 0.0
20/04:30pm 21.1 12.5 -8.0 13 11.4 E 30 41 16 22 1023.5 1020.4 0.0
20/04:00pm 21.1 12.8 -9.2 12 11.6 E 28 44 15 24 1023.7 1020.7 0.0
20/03:30pm 21.0 13.2 -7.1 14 11.2 E 26 39 14 21 1023.7 1020.7 0.0
20/03:00pm 20.7 12.6 -6.9 15 11.0 ESE 28 37 15 20 1024.3 1021.3 0.0
20/02:30pm 19.5 11.1 -5.9 17 10.2 E 30 41 16 22 1024.6 1021.5 0.0
20/02:00pm 19.9 12.8 -4.4 19 10.1 ESE 24 33 13 18 1025.4 1022.4 0.0
20/01:30pm 19.2 11.9 -2.9 22 9.4 E 26 35 14 19 1025.5 1022.5 0.0
20/01:00pm 18.3 11.1 -1.9 25 8.7 E 26 37 14 20 1026.3 1023.2 0.0
20/12:30pm 17.5 10.4 -1.2 28 8.1 ENE 26 35 14 19 1026.8 1023.8 0.0
20/12:00pm 17.4 10.7 -1.4 28 8.1 ENE 24 35 13 19 1027.2 1024.2 0.0
20/11:30am 17.1 10.2 -0.1 31 7.6 ENE 26 35 14 19 1027.4 1024.4 0.0
20/11:00am 17.0 9.7 0.1 32 7.5 E 28 41 15 22 1027.6 1024.6 0.0
20/10:30am 16.4 8.4 0.4 33 7.1 E 32 48 17 26 1027.7 1024.7 0.0
20/10:00am 16.2 8.3 1.1 36 6.8 E 32 46 17 25 1027.6 1024.6 0.0
20/09:30am 15.6 7.7 1.1 37 6.5 E 32 41 17 22 1027.8 1024.8 0.0
20/09:00am 15.4 8.6 1.0 37 6.4 E 26 39 14 21 1028.0 1024.9 0.0
20/08:30am 14.7 8.8 1.5 40 5.9 E 22 32 12 17 1027.7 1024.7 0.0
20/08:00am 13.7 9.0 3.0 48 4.9 ESE 17 20 9 11 1027.4 1024.4 0.0
20/07:30am 13.1 8.6 4.1 54 4.2 ESE 17 22 9 12 1027.1 1024.1 0.0
20/07:00am 13.4 9.0 4.5 55 4.2 ESE 17 24 9 13 1026.8 1023.8 0.0
20/06:30am 13.9 8.9 4.7 54 4.4 ESE 20 26 11 14 1026.7 1023.7 0.0
20/06:00am 14.2 9.3 5.1 54 4.4 ESE 20 28 11 15 1026.4 1023.3 0.0
20/05:30am 14.5 9.6 5.2 53 4.5 ESE 20 28 11 15 1026.5 1023.4 0.0
20/05:00am 14.7 9.9 5.5 54 4.5 ESE 20 32 11 17 1026.3 1023.2 0.0
20/04:30am 14.9 10.1 5.5 53 4.6 SE 20 30 11 16 1026.3 1023.2 0.0
20/04:00am 15.3 10.5 5.5 52 4.8 ESE 20 28 11 15 1026.3 1023.2 0.0
20/03:30am 15.5 10.3 5.5 51 4.9 ESE 22 32 12 17 1026.4 1023.3 0.0
20/03:00am 15.8 9.9 5.7 51 5.0 ESE 26 39 14 21 1026.4 1023.3 0.0
20/02:30am 16.0 10.1 5.7 50 5.1 ESE 26 41 14 22 1026.6 1023.5 0.0
20/02:00am 16.3 10.4 5.8 50 5.2 ESE 26 35 14 19 1026.7 1023.7 0.0
20/01:30am 16.5 11.0 6.1 50 5.2 ESE 24 35 13 19 1026.9 1023.9 0.0
20/01:16am 16.6 10.4 6.2 50 5.2 ESE 28 46 15 25 1026.8 1023.8 0.0
20/01:00am 16.7 9.8 6.4 50 5.2 ESE 32 43 17 23 1026.7 1023.7 0.0
20/12:30am 17.1 11.0 6.4 49 5.4 ESE 28 39 15 21 1026.9 1023.9 0.0
20/12:00am 17.2 11.5 6.5 49 5.4 SE 26 33 14 18 1026.8 1023.8 0.0
 
Date/Time
CST
Temp
°C
App
Temp
°C
Dew
Point
Rel
Hum
%
Delta-T
°C
Wind Press
QNH
hPa
Press
MSL
hPa
Rain
since 9 am
mm
Dir
 
Spd
km/h
Gust
km/h
Spd
kts
Gust
kts
19/11:30pm 17.3 12.8 6.9 50 5.3 SE 20 30 11 16 1027.0 1024.0 0.0
19/11:00pm 17.9 13.2 3.2 37 7.0 SE 17 24 9 13 1027.0 1024.0 0.0
19/10:30pm 18.4 14.2 1.8 33 7.7 SE 13 17 7 9 1027.0 1024.0 0.0
19/10:00pm 18.3 14.1 1.7 33 7.7 SE 13 17 7 9 1027.1 1024.1 0.0
19/09:30pm 18.7 14.1 1.4 31 8.0 SE 15 17 8 9 1027.0 1024.0 0.0
19/09:00pm 19.5 14.5 1.1 29 8.5 SE 17 26 9 14 1027.1 1024.1 0.0
19/08:30pm 20.1 14.1 0.8 27 8.9 SE 22 30 12 16 1026.7 1023.7 0.0
19/08:00pm 20.6 14.6 1.1 27 9.1 SE 22 32 12 17 1026.0 1023.0 0.0
19/07:30pm 21.0 15.1 1.5 27 9.2 SE 22 35 12 19 1025.9 1022.9 0.0
19/07:00pm 21.4 15.5 1.9 27 9.3 SE 22 33 12 18 1025.6 1022.6 0.0
19/06:30pm 22.2 15.8 1.0 24 10.0 ESE 24 33 13 18 1025.3 1022.3 0.0
19/06:00pm 22.5 16.8 0.5 23 10.3 ESE 20 32 11 17 1025.2 1022.2 0.0
19/05:30pm 22.5 15.9 -0.3 22 10.5 E 24 35 13 19 1024.9 1021.8 0.0
19/05:00pm 23.0 16.4 -0.4 21 10.9 ESE 24 33 13 18 1024.9 1021.8 0.0
19/04:30pm 22.8 15.7 -1.2 20 10.9 ESE 26 39 14 21 1024.7 1021.6 0.0
19/04:00pm 22.9 15.9 -0.6 21 10.8 ESE 26 39 14 21 1024.8 1021.7 0.0
19/03:30pm 22.5 15.2 0.1 22 10.4 ESE 28 43 15 23 1024.9 1021.8 0.0
19/03:00pm 22.9 16.6 1.6 24 10.2 ESE 24 33 13 18 1025.2 1022.2 0.0
19/02:30pm 22.1 15.4 1.5 25 9.8 ESE 26 37 14 20 1025.2 1022.2 0.0
19/02:00pm 22.4 16.7 3.0 28 9.6 ESE 22 37 12 20 1025.5 1022.5 0.0
19/01:30pm 22.3 15.1 2.8 27 9.5 ESE 30 43 16 23 1025.5 1022.5 0.0
19/01:00pm 21.3 14.5 3.3 30 8.8 ESE 28 43 15 23 1025.7 1022.7 0.0
19/12:30pm 21.4 14.7 3.5 31 8.8 ESE 28 39 15 21 1026.4 1023.3 0.0
19/12:00pm 21.6 14.5 3.5 30 8.9 E 30 37 16 20 1026.7 1023.7 0.0
19/11:30am 20.3 12.6 3.5 33 8.2 ESE 33 46 18 25 1026.8 1023.8 0.0
19/11:00am 19.8 12.1 3.2 33 8.1 ESE 33 44 18 24 1026.9 1023.9 0.0
19/10:30am 18.5 11.0 3.5 37 7.2 ESE 32 44 17 24 1026.5 1023.4 0.0
19/10:00am 17.3 10.2 3.7 40 6.5 ESE 30 43 16 23 1026.4 1023.3 0.0
19/09:30am 17.1 10.8 3.7 41 6.4 ESE 26 39 14 21 1026.5 1023.4 0.0
19/09:00am 16.0 10.1 3.8 44 5.8 ESE 24 33 13 18 1026.4 1023.3 0.0
19/08:30am 15.7 10.8 3.9 45 5.6 ESE 19 26 10 14 1026.3 1023.2 0.0
19/08:00am 15.0 11.2 4.0 47 5.2 ESE 13 20 7 11 1025.9 1022.9 0.0
19/07:30am 14.1 11.9 5.4 56 4.2 E 6 9 3 5 1025.8 1022.8 0.0
19/07:00am 14.0 11.9 5.6 57 4.1 ESE 6 9 3 5 1025.6 1022.6 0.0
19/06:30am 14.4 11.7 5.6 55 4.3 SE 9 13 5 7 1025.2 1022.2 0.0
19/06:00am 14.6 11.1 5.6 54 4.4 SE 13 19 7 10 1024.7 1021.6 0.0
19/05:30am 14.4 11.1 6.3 58 4.0 SE 13 15 7 8 1024.5 1021.4 0.0
19/05:00am 14.9 12.4 6.5 57 4.2 SE 9 13 5 7 1024.2 1021.2 0.0
19/04:30am 15.5 12.7 6.8 56 4.4 SE 11 15 6 8 1023.9 1020.9 0.0
19/04:00am 16.2 13.0 6.7 53 4.8 SE 13 17 7 9 1023.9 1020.9 0.0
19/03:30am 16.6 13.5 7.2 54 4.8 ESE 13 17 7 9 1023.8 1020.8 0.0
19/03:00am 16.7 14.1 7.6 55 4.7 ESE 11 15 6 8 1023.9 1020.9 0.0
19/02:30am 17.3 13.8 7.4 52 5.1 ESE 15 20 8 11 1024.1 1021.1 0.0
19/02:00am 17.7 14.3 7.5 51 5.3 ESE 15 20 8 11 1024.5 1021.4 0.0
19/01:30am 18.0 14.2 7.6 50 5.4 ESE 17 26 9 14 1024.2 1021.2 0.0
19/01:00am 18.3 14.5 7.5 49 5.6 SE 17 24 9 13 1024.2 1021.2 0.0
19/12:30am 18.5 14.3 7.3 48 5.8 ESE 19 28 10 15 1024.2 1021.2 0.0
19/12:00am 18.8 13.9 6.7 45 6.2 SE 22 28 12 15 1024.5 1021.4 0.0
 
Date/Time
CST
Temp
°C
App
Temp
°C
Dew
Point
Rel
Hum
%
Delta-T
°C
Wind Press
QNH
hPa
Press
MSL
hPa
Rain
since 9 am
mm
Dir
 
Spd
km/h
Gust
km/h
Spd
kts
Gust
kts
18/11:30pm 19.3 15.2 6.4 43 6.6 SE 17 26 9 14 1024.3 1021.3 0.0
18/11:00pm 19.8 14.0 6.1 40 7.0 SE 26 39 14 21 1024.0 1021.0 0.0
18/10:30pm 20.0 14.5 5.9 39 7.2 SE 24 33 13 18 1023.9 1020.9 0.0
18/10:00pm 20.0 14.8 5.6 39 7.3 SSE 22 33 12 18 1023.7 1020.7 0.0
18/09:30pm 20.2 15.5 5.1 37 7.6 SSE 19 26 10 14 1023.7 1020.7 0.0

Other Formats:

Comma delimited format used in spreadsheet applications
http://www.bom.gov.au/fwo/IDD60801/IDD60801.94461.axf

JavaScript Object Notation format (JSON) in row-major order
http://www.bom.gov.au/fwo/IDD60801/IDD60801.94461.json